createdAt,value
2023-05-13T00:10:17.483Z,26.80
2023-05-13T00:21:33.270Z,26.90
2023-05-13T01:04:56.132Z,27.10
2023-05-13T02:31:26.009Z,27.40
2023-05-13T02:41:39.167Z,27.30
2023-05-13T02:51:48.626Z,27.30
2023-05-13T03:25:47.193Z,27.20
2023-05-13T03:35:54.334Z,27.20
2023-05-13T03:46:08.386Z,27.10
2023-05-13T04:08:29.305Z,27.30
2023-05-13T04:18:57.127Z,27.30
2023-05-13T04:29:05.816Z,27.30
2023-05-13T04:52:01.488Z,27.40
2023-05-13T05:02:35.714Z,27.40
2023-05-13T05:12:47.388Z,27.30
2023-05-13T05:23:18.450Z,27.20
2023-05-13T05:33:59.939Z,27.20
2023-05-13T05:44:09.446Z,27.10
2023-05-13T05:54:21.011Z,27.10
2023-05-13T06:04:37.006Z,27.00
2023-05-13T06:14:45.504Z,26.90
2023-05-13T06:24:56.144Z,26.80
2023-05-13T06:35:04.595Z,26.80
2023-05-13T06:45:14.366Z,26.70
2023-05-13T13:48:35.232Z,26.00
2023-05-13T14:11:55.535Z,26.00
2023-05-13T14:45:12.557Z,26.00
2023-05-13T14:55:25.859Z,26.10
2023-05-13T15:06:55.703Z,26.10
2023-05-13T15:30:22.553Z,26.20
2023-05-13T15:40:38.626Z,26.20
2023-05-13T15:51:23.921Z,26.40
2023-05-13T16:01:33.092Z,26.50
2023-05-13T16:11:47.282Z,26.50
2023-05-13T16:22:03.160Z,26.50
2023-05-13T16:32:24.069Z,26.50
2023-05-13T16:43:12.247Z,26.60
2023-05-13T16:53:21.530Z,26.60
2023-05-13T17:03:32.376Z,26.40
2023-05-13T17:13:40.821Z,26.30
2023-05-13T17:23:52.025Z,26.10
2023-05-13T17:33:59.694Z,26.00
2023-05-13T17:44:10.027Z,26.00
2023-05-13T17:54:17.161Z,25.90
2023-05-13T18:04:26.982Z,25.90
2023-05-13T18:14:34.562Z,25.80
2023-05-13T18:24:43.168Z,25.70
2023-05-13T18:34:50.022Z,25.80
2023-05-13T18:44:58.321Z,25.80
2023-05-13T18:55:07.149Z,25.70
2023-05-13T19:05:16.318Z,25.70
2023-05-13T19:15:26.041Z,25.70
2023-05-13T19:25:34.483Z,25.60
2023-05-13T19:35:41.214Z,25.50
2023-05-13T19:45:49.525Z,25.40
2023-05-13T19:55:56.352Z,25.30
2023-05-13T20:06:05.547Z,25.20
2023-05-13T20:16:12.785Z,25.10
2023-05-13T20:26:29.690Z,25.10
2023-05-13T20:36:39.825Z,25.00
2023-05-13T20:46:48.596Z,25.10
2023-05-13T20:56:55.951Z,25.20
2023-05-13T21:07:33.422Z,25.40
2023-05-13T21:17:47.239Z,25.50
2023-05-13T21:28:03.716Z,25.60
2023-05-13T21:38:12.760Z,25.50
2023-05-13T21:48:23.292Z,25.40
2023-05-13T21:58:31.398Z,25.30
2023-05-13T22:08:55.179Z,25.40
2023-05-13T22:19:13.068Z,25.40
2023-05-13T22:29:22.209Z,25.50
2023-05-13T22:39:29.550Z,25.50
2023-05-13T22:49:37.984Z,25.50
2023-05-13T22:59:44.878Z,25.60
2023-05-13T23:09:53.374Z,25.60
2023-05-13T23:20:00.740Z,25.70
2023-05-13T23:30:10.521Z,25.70
2023-05-13T23:40:17.708Z,25.80
2023-05-13T23:50:26.253Z,25.80
